LES MASIES DE RODA (Osona)





Hora UTC 08:25
Temperatura 22.3 ºC
Suelo 15 cm 22.5 ºC
Subsuelo 10 cm 24.2 ºC
Humedad 83.3 %
Presión 1009.2 hPa
Pluja 0.2 mm
Velocidad viento 6.4 km/h
Dirección viento SSE
Radiación solar 153.2 W/m²

Datos diarios 2024-07-21



Hora UTC (invierno +1h; verano +2h)
Temperatura (ºC) Humedad (%) Presión (hPa) Velocidad viento (km/h) Precipitación (mm) Radiación solar (W/m²)
Hora UTC Aire Suelo 15 cm Subsuelo 10 cm Humedad Presión Vel. Dir. Vel. Max Dir. Intent. máx 5 min. Rad. Sol.
00:05 22.5 19.9 25.9 85.0 1007.2 0.7 W 0.7 W 0.0 0.1
00:10 22.3 19.7 25.8 85.3 1007.2 2.9 WNW 4.6 WNW 0.0 0.1
00:15 22.1 19.5 25.8 86.6 1007.2 1.7 SSW 3.2 SW 0.0 0.1
00:20 22.2 19.6 25.8 87.2 1007.2 4.3 S 6.4 S 0.0 0.1
00:25 22.5 19.9 25.7 85.4 1007.2 5.3 S 8.1 SSW 0.0 0.1
00:30 22.5 20.1 25.7 84.3 1007.2 4.0 S 6.0 S 0.0 0.1
00:35 22.5 19.9 25.6 84.1 1007.1 0.8 SW 3.9 SW 0.0 0.1
00:40 22.2 19.6 25.6 84.3 1007.1 0.9 NE 3.5 ENE 0.0 0.1
00:45 22.0 19.4 25.5 85.6 1007.1 2.7 ENE 3.9 NE 0.0 0.1
00:50 21.9 19.3 25.5 85.8 1007.0 3.0 E 5.7 ESE 0.0 0.1
00:55 21.8 19.2 25.5 85.8 1007.0 1.0 N 2.8 NE 0.0 0.1
01:00 21.4 19.0 25.4 86.2 1007.1 3.2 NW 4.2 NW 0.0 0.1
01:05 21.2 18.7 25.4 88.1 1007.2 1.6 N 4.2 NNE 0.0 0.1
01:10 21.2 18.8 25.3 87.7 1007.2 1.9 NNW 4.2 WNW 0.0 0.1
01:15 21.0 18.6 25.3 88.3 1007.2 3.8 WNW 6.0 WNW 0.0 0.1
01:20 20.8 18.4 25.3 88.9 1007.3 4.3 NW 5.7 NW 0.0 0.1
01:25 20.8 18.4 25.2 89.7 1007.3 3.2 NW 4.6 NW 0.0 0.1
01:30 20.8 18.4 25.2 89.9 1007.3 1.1 ENE 3.2 N 0.0 0.1
01:35 20.8 18.4 25.1 89.4 1007.4 0.3 W 2.1 W 0.0 0.1
01:40 20.9 18.2 25.1 89.2 1007.4 1.9 ESE 3.5 ESE 0.0 0.1
01:45 20.9 18.1 25.0 88.6 1007.4 2.8 SE 4.6 SE 0.0 0.1
01:50 20.9 18.2 25.0 86.1 1007.3 4.1 ESE 9.9 ESE 0.0 0.1
01:55 20.8 18.2 25.0 85.5 1007.2 3.4 E 9.2 ESE 0.0 0.1
02:00 20.7 18.2 24.9 86.0 1007.1 2.9 E 8.5 E 0.0 0.1
02:05 20.6 18.2 24.9 86.1 1007.1 2.9 ENE 5.7 ENE 0.0 0.1
02:10 20.6 18.2 24.8 85.4 1007.2 3.1 ENE 5.7 ENE 0.0 0.1
02:15 20.6 18.2 24.8 85.3 1007.1 0.1 E 2.5 ENE 0.0 0.1
02:20 20.4 18.1 24.8 86.2 1007.2 0.0 NNE 0.0 SW 0.0 0.1
02:25 20.1 17.9 24.7 87.4 1007.3 3.6 WNW 5.0 WNW 0.0 0.1
02:30 19.9 17.7 24.7 88.1 1007.3 1.8 NNW 5.0 WNW 0.0 0.1
02:35 20.0 17.7 24.7 87.6 1007.4 0.5 NW 3.2 NW 0.0 0.1
02:40 20.0 17.6 24.6 87.4 1007.4 0.8 NW 4.2 ENE 0.0 0.1
02:45 20.1 17.8 24.6 87.3 1007.3 4.2 ESE 11.3 SSE 0.0 0.1
02:50 21.5 18.9 24.5 84.8 1007.3 7.2 SE 16.6 SSE 0.0 0.1
02:55 22.6 19.8 24.5 80.6 1007.3 7.8 SE 15.5 SSE 0.0 0.1
03:00 23.2 20.4 24.5 78.4 1007.4 8.1 SE 13.4 ESE 0.0 0.1
03:05 23.3 20.5 24.4 77.8 1007.5 5.9 SE 11.7 ESE 0.0 0.1
03:10 23.3 20.7 24.4 77.8 1007.6 6.6 SSE 12.0 ESE 0.0 0.1
03:15 23.4 21.0 24.4 77.7 1007.7 8.1 SE 17.3 SE 0.0 0.1
03:20 23.4 21.1 24.4 77.8 1007.8 10.0 SE 17.3 SE 0.0 0.1
03:25 23.4 21.2 24.4 78.1 1007.9 9.6 SE 20.1 SE 0.0 0.1
03:30 23.4 21.3 24.4 78.5 1007.9 9.2 SE 18.7 ESE 0.0 0.1
03:35 23.4 21.5 24.4 78.7 1008.0 10.7 SE 23.0 SE 0.0 0.1
03:40 23.4 21.4 24.4 78.8 1008.0 8.8 SE 19.8 SSE 0.0 0.1
03:45 23.4 21.4 24.4 78.9 1008.1 9.5 SE 21.2 SE 0.0 0.1
03:50 23.4 21.4 24.3 78.9 1008.0 8.9 SE 16.2 E 0.0 0.1
03:55 23.4 21.5 24.3 79.1 1008.0 6.7 ESE 11.3 ESE 0.0 0.1
04:00 23.4 21.6 24.3 79.2 1007.9 5.7 ESE 11.7 ESE 0.0 0.1
04:05 23.3 21.6 24.3 79.3 1007.9 5.7 E 15.9 ENE 0.0 0.1
04:10 23.3 21.6 24.3 79.4 1007.9 6.5 E 14.8 ESE 0.0 0.1
04:15 23.2 21.6 24.3 79.5 1008.0 8.5 ESE 16.2 SE 0.0 0.1
04:20 23.2 21.6 24.3 79.4 1008.0 9.7 ESE 17.0 SE 0.0 0.2
04:25 23.2 21.7 24.3 79.6 1008.1 8.2 ESE 17.7 ESE 0.0 0.4
04:30 23.2 21.8 24.3 79.8 1008.1 6.5 E 15.5 SE 0.0 0.8
04:35 23.2 21.8 24.3 80.6 1008.1 5.5 E 14.5 ESE 0.0 1.5
04:40 23.2 21.7 24.3 80.8 1008.1 4.0 E 8.5 SE 0.0 1.9
04:45 23.2 21.8 24.3 80.9 1008.2 3.1 SE 7.8 SE 0.0 2.5
04:50 23.1 21.8 24.3 81.0 1008.2 3.9 SE 7.4 SSE 0.0 2.6
04:55 23.2 21.9 24.3 81.0 1008.2 4.5 ESE 11.0 SE 0.0 4.2
05:00 23.2 21.9 24.2 80.6 1008.3 6.1 ESE 14.1 SE 0.0 7.1
05:05 23.2 22.0 24.3 80.0 1008.3 6.3 E 11.0 ESE 0.0 12.8
05:10 23.3 22.1 24.3 79.6 1008.3 4.8 ESE 11.7 ESE 0.0 23.5
05:15 23.3 22.1 24.3 78.6 1008.3 6.0 ESE 11.3 SSE 0.0 32.5
05:20 23.3 22.0 24.3 78.4 1008.3 5.6 ESE 11.0 SE 0.0 39.0
05:25 23.3 21.9 24.3 77.9 1008.3 6.7 ESE 13.1 ESE 0.0 48.6
05:30 23.2 21.9 24.3 77.9 1008.2 6.3 SE 9.9 ESE 0.0 50.6
05:35 23.2 21.9 24.3 77.8 1008.3 6.9 SE 12.0 E 0.0 55.3
05:40 23.1 22.0 24.2 77.9 1008.3 6.7 SE 12.0 S 0.0 70.5
05:45 23.1 22.0 24.2 77.8 1008.3 8.1 SE 14.1 ESE 0.0 80.4
05:50 23.1 22.1 24.2 78.1 1008.3 6.6 SE 12.0 S 0.0 84.8
05:55 23.2 22.2 24.2 77.8 1008.4 7.4 SE 14.5 ESE 0.0 85.9
06:00 23.2 22.3 24.2 77.7 1008.6 6.4 SE 11.3 SE 0.0 95.6
06:05 23.3 22.6 24.2 77.4 1008.7 6.6 SE 12.0 SE 0.0 113.5
06:10 23.2 22.8 24.2 77.6 1008.7 7.9 ESE 12.4 ESE 0.0 77.0
06:15 23.1 22.6 24.2 78.1 1008.7 7.5 ESE 14.8 ESE 0.0 43.1
06:20 23.0 22.3 24.2 78.5 1008.7 9.5 ESE 15.5 ESE 0.0 29.8
06:25 22.9 22.2 24.2 78.9 1008.7 8.7 SE 13.8 ESE 0.0 42.5
06:30 23.0 22.3 24.2 78.9 1008.7 7.9 SE 15.9 SSE 0.0 55.7
06:35 23.1 22.4 24.2 78.7 1008.7 5.9 SE 9.9 E 0.0 62.5
06:40 23.1 22.6 24.2 78.7 1008.8 5.9 SE 9.9 SE 0.0 80.8
06:45 23.3 22.9 24.2 78.6 1008.8 4.1 SE 9.2 SE 0.0 111.3
06:50 23.4 23.2 24.3 78.1 1008.7 3.9 SE 6.7 SSE 0.0 95.8
06:55 23.4 23.1 24.3 78.7 1008.7 3.5 SE 7.8 S 0.0 74.3
07:00 23.5 23.0 24.3 79.1 1008.7 1.2 SSE 5.3 S 0.0 55.9
07:05 23.5 22.7 24.3 81.2 1008.8 1.9 SW 7.1 WSW 0.2 54.1
07:10 23.4 22.6 24.3 83.4 1008.8 5.0 WSW 8.1 WSW 0.0 116.1
07:15 23.3 22.7 24.3 84.4 1008.5 5.7 W 9.2 WNW 0.0 86.1
07:20 23.1 22.4 24.3 85.9 1008.7 4.2 WNW 7.4 W 0.0 26.1
07:25 23.0 22.1 24.4 85.9 1008.7 5.7 WNW 8.8 W 0.0 10.6
07:30 22.8 21.7 24.4 86.7 1009.1 9.5 WSW 17.3 SW 0.0 6.7
07:35 22.4 21.3 24.4 83.6 1009.1 9.0 WSW 16.2 SW 0.0 18.3
07:40 22.1 21.1 24.4 84.4 1009.1 8.0 WSW 14.8 SW 0.0 33.4
07:45 22.0 21.0 24.4 85.6 1009.1 5.3 WSW 9.5 WSW 0.0 49.3
07:50 21.9 21.0 24.3 85.9 1009.2 6.2 WSW 11.7 SW 0.0 37.3
07:55 21.7 20.8 24.3 85.7 1009.2 7.0 SW 13.4 SW 0.0 33.5
08:00 21.7 20.8 24.3 84.6 1009.3 6.7 SW 11.7 SSW 0.0 38.5
08:05 21.6 20.7 24.3 84.7 1009.3 6.4 SW 10.6 SSW 0.0 44.9
08:10 21.7 21.1 24.2 84.3 1009.3 5.7 SSW 11.0 SSW 0.0 124.5
08:15 22.0 21.9 24.2 83.4 1009.3 5.2 SSW 8.5 SSW 0.0 203.7
08:20 22.2 22.6 24.2 83.7 1009.2 6.7 S 10.6 SSW 0.0 194.9
08:25 22.3 22.5 24.2 83.3 1009.2 6.4 SSE 9.9 SSE 0.0 153.2
Máxima 23.6 23.2 25.9 89.9 1009.3 10.7 SE 23.0 SE 0.2 203.7
Mínima 19.9 17.6 20 77.4 1007.0
Total 0.2